Terminal Aerodrome Forecast
Issued by NWS

Home | Current Version | Previous Version | Text Only | Print | Product List | Glossary On
Versions: 1 2 3 4 5 6 7 8 9 10 11 12 13 14
853
FTUS42 TJSJ 302339
TAFIST
TAF
TIST 302339Z 3100/3124 05010KT P6SM VCTS SCT030CB BKN050
     FM310500 08013G19KT P6SM VCTS SCT020CB BKN050 OVC100
     FM311300 08018G25KT P6SM -TSRA BKN025CB BKN040
     FM312100 11020G26KT P6SM -RA OVC040=

USA.gov is the U.S. government's official web portal to all federal, state and local government web resources and services.